Time,TemperatureF,DewpointF,PressureIn,WindDirection,WindDirectionDegrees,WindSpeedMPH,WindSpeedGustMPH,Humidity,HourlyPrecipIn,Conditions,Clouds,dailyrainin,SoftwareType,DateUTC
2013-05-20 00:00:00,61.4,59.4,29.94,SSW,203,0.0,0.0,93,0.00,,,0.00,WUHU216HW,2013-05-20 04:00:00,
2013-05-20 00:01:00,61.4,59.4,29.94,SSW,203,0.0,0.0,93,0.00,,,0.00,WUHU216HW,2013-05-20 04:01:00,
2013-05-20 00:06:00,61.4,59.4,29.94,SSW,203,0.0,0.0,93,0.00,,,0.00,WUHU216HW,2013-05-20 04:06:00,
2013-05-20 00:11:00,61.4,59.4,29.94,SSW,203,0.0,0.0,93,0.00,,,0.00,WUHU216HW,2013-05-20 04:11:00,
2013-05-20 00:16:00,61.4,59.4,29.93,SSW,203,0.0,0.0,93,0.00,,,0.00,WUHU216HW,2013-05-20 04:16:00,
2013-05-20 00:21:00,61.4,59.4,29.93,SSW,203,0.0,0.0,93,0.00,,,0.00,WUHU216HW,2013-05-20 04:21:00,
2013-05-20 00:26:00,61.4,59.4,29.93,SSW,203,0.0,0.0,93,0.00,,,0.00,WUHU216HW,2013-05-20 04:26:00,
2013-05-20 00:31:00,61.4,59.4,29.93,SSW,203,0.0,0.0,93,0.00,,,0.00,WUHU216HW,2013-05-20 04:31:00,
2013-05-20 00:36:00,61.4,59.4,29.93,SSW,203,0.0,0.0,93,0.00,,,0.00,WUHU216HW,2013-05-20 04:36:00,
2013-05-20 00:41:00,61.4,59.4,29.93,SSW,203,0.0,0.0,93,0.00,,,0.00,WUHU216HW,2013-05-20 04:41:00,
2013-05-20 00:46:00,61.4,59.4,29.93,SSW,203,0.0,0.0,93,0.00,,,0.00,WUHU216HW,2013-05-20 04:46:00,
2013-05-20 00:51:00,61.4,59.4,29.93,SSW,203,0.0,0.0,93,0.00,,,0.00,WUHU216HW,2013-05-20 04:51:00,
2013-05-20 00:56:00,61.4,59.4,29.93,SSW,203,0.0,0.0,93,0.00,,,0.00,WUHU216HW,2013-05-20 04:56:00,
2013-05-20 01:01:00,61.4,59.4,29.93,SSW,203,0.0,0.0,93,0.00,,,0.00,WUHU216HW,2013-05-20 05:01:00,
2013-05-20 01:06:00,61.2,59.2,29.93,SSW,203,0.0,0.0,93,0.00,,,0.00,WUHU216HW,2013-05-20 05:06:00,
2013-05-20 01:11:00,61.2,59.2,29.93,SSW,203,0.0,0.0,93,0.00,,,0.00,WUHU216HW,2013-05-20 05:11:00,
2013-05-20 01:16:00,61.2,59.2,29.93,SSW,203,0.0,0.0,93,0.00,,,0.00,WUHU216HW,2013-05-20 05:16:00,
2013-05-20 01:21:00,61.2,59.2,29.92,SSW,203,0.0,0.0,93,0.00,,,0.00,WUHU216HW,2013-05-20 05:21:00,
2013-05-20 01:26:00,61.2,59.2,29.92,SSW,203,0.0,0.0,93,0.00,,,0.00,WUHU216HW,2013-05-20 05:26:00,
2013-05-20 01:31:00,61.2,59.2,29.92,SSW,203,0.0,0.0,93,0.00,,,0.00,WUHU216HW,2013-05-20 05:31:00,
2013-05-20 01:36:00,61.2,59.2,29.92,SW,225,0.0,0.0,93,0.00,,,0.00,WUHU216HW,2013-05-20 05:36:00,
2013-05-20 01:40:00,61.2,59.2,29.91,SW,225,0.0,0.0,93,0.00,,,0.00,WUHU216HW,2013-05-20 05:40:00,
2013-05-20 01:45:00,61.0,59.1,29.91,SW,225,0.0,0.0,93,0.00,,,0.00,WUHU216HW,2013-05-20 05:45:00,
2013-05-20 01:50:00,60.8,58.9,29.91,SW,225,0.0,0.0,93,0.00,,,0.00,WUHU216HW,2013-05-20 05:50:00,
2013-05-20 01:55:00,60.8,58.9,29.91,SW,225,0.0,0.0,93,0.00,,,0.00,WUHU216HW,2013-05-20 05:55:00,
2013-05-20 02:00:00,60.7,58.7,29.91,SW,225,0.0,0.0,93,0.00,,,0.00,WUHU216HW,2013-05-20 06:00:00,
2013-05-20 02:05:00,60.5,58.5,29.91,SW,225,0.0,0.0,93,0.00,,,0.00,WUHU216HW,2013-05-20 06:05:00,
2013-05-20 02:10:00,60.5,58.8,29.91,SW,225,0.0,0.0,94,0.00,,,0.00,WUHU216HW,2013-05-20 06:10:00,
2013-05-20 02:15:00,60.5,58.8,29.91,SW,225,0.0,0.9,94,0.00,,,0.00,WUHU216HW,2013-05-20 06:15:00,
2013-05-20 02:20:00,60.5,58.8,29.91,SW,225,0.0,0.9,94,0.00,,,0.00,WUHU216HW,2013-05-20 06:20:00,
2013-05-20 02:25:00,60.3,58.6,29.91,SW,225,0.0,0.0,94,0.00,,,0.00,WUHU216HW,2013-05-20 06:25:00,
2013-05-20 02:30:00,60.5,58.8,29.91,SW,225,0.0,0.0,94,0.00,,,0.00,WUHU216HW,2013-05-20 06:30:00,
2013-05-20 02:35:00,60.5,58.8,29.91,SW,225,0.0,0.0,94,0.00,,,0.00,WUHU216HW,2013-05-20 06:35:00,
2013-05-20 02:40:00,60.5,58.8,29.91,NW,315,0.0,0.0,94,0.00,,,0.00,WUHU216HW,2013-05-20 06:40:00,
2013-05-20 02:45:00,60.3,58.6,29.91,NW,315,0.0,0.0,94,0.00,,,0.00,WUHU216HW,2013-05-20 06:45:00,
2013-05-20 02:50:00,60.3,58.6,29.91,NW,315,0.0,0.0,94,0.00,,,0.00,WUHU216HW,2013-05-20 06:50:00,
2013-05-20 02:55:00,60.3,58.6,29.91,NW,315,0.0,0.0,94,0.00,,,0.00,WUHU216HW,2013-05-20 06:55:00,
2013-05-20 03:01:00,60.3,58.6,29.90,NW,315,0.0,0.0,94,0.00,,,0.00,WUHU216HW,2013-05-20 07:01:00,
2013-05-20 03:06:00,60.3,58.6,29.91,NW,315,0.0,0.0,94,0.00,,,0.00,WUHU216HW,2013-05-20 07:06:00,
2013-05-20 03:11:00,60.3,58.6,29.91,NW,315,0.0,0.0,94,0.00,,,0.00,WUHU216HW,2013-05-20 07:11:00,
2013-05-20 03:16:00,60.3,58.6,29.91,NW,315,0.0,0.0,94,0.00,,,0.00,WUHU216HW,2013-05-20 07:16:00,
2013-05-20 03:21:00,60.3,58.6,29.91,NW,315,0.0,0.0,94,0.00,,,0.00,WUHU216HW,2013-05-20 07:21:00,
2013-05-20 03:26:00,60.1,58.4,29.91,NW,315,0.0,0.2,94,0.00,,,0.00,WUHU216HW,2013-05-20 07:26:00,
2013-05-20 03:31:00,60.3,58.6,29.91,NW,315,0.0,0.2,94,0.00,,,0.00,WUHU216HW,2013-05-20 07:31:00,
2013-05-20 03:36:00,60.3,58.6,29.91,NW,315,0.0,0.0,94,0.00,,,0.00,WUHU216HW,2013-05-20 07:36:00,
2013-05-20 03:41:00,60.3,58.6,29.91,NW,315,0.0,0.0,94,0.00,,,0.00,WUHU216HW,2013-05-20 07:41:00,
2013-05-20 03:46:00,60.3,58.6,29.91,NW,315,0.0,0.0,94,0.00,,,0.00,WUHU216HW,2013-05-20 07:46:00,
2013-05-20 03:51:00,60.3,58.6,29.91,NW,315,0.0,0.0,94,0.00,,,0.00,WUHU216HW,2013-05-20 07:51:00,
2013-05-20 03:55:00,60.3,58.6,29.91,NW,315,0.0,0.0,94,0.00,,,0.00,WUHU216HW,2013-05-20 07:55:00,
2013-05-20 04:01:00,60.3,58.6,29.91,NW,315,0.0,0.0,94,0.00,,,0.00,WUHU216HW,2013-05-20 08:01:00,
2013-05-20 04:05:00,60.1,58.4,29.91,NW,315,0.0,0.0,94,0.00,,,0.00,WUHU216HW,2013-05-20 08:05:00,
2013-05-20 04:11:00,60.1,58.4,29.91,NW,315,0.0,0.0,94,0.00,,,0.00,WUHU216HW,2013-05-20 08:11:00,
2013-05-20 04:15:00,60.1,58.4,29.91,NW,315,0.0,0.0,94,0.00,,,0.00,WUHU216HW,2013-05-20 08:15:00,
2013-05-20 04:20:00,60.1,58.4,29.91,NW,315,0.0,0.0,94,0.00,,,0.00,WUHU216HW,2013-05-20 08:20:00,
2013-05-20 04:25:00,60.1,58.4,29.92,NW,315,0.0,0.0,94,0.00,,,0.00,WUHU216HW,2013-05-20 08:25:00,
2013-05-20 04:30:00,60.1,58.4,29.92,NW,315,0.0,0.2,94,0.00,,,0.00,WUHU216HW,2013-05-20 08:30:00,
2013-05-20 04:35:00,59.9,58.2,29.91,NW,315,0.0,0.2,94,0.00,,,0.00,WUHU216HW,2013-05-20 08:35:00,
2013-05-20 04:40:00,59.9,58.2,29.91,NW,315,0.0,0.0,94,0.00,,,0.00,WUHU216HW,2013-05-20 08:40:00,
2013-05-20 04:45:00,59.9,58.2,29.91,NW,315,0.0,0.0,94,0.00,,,0.00,WUHU216HW,2013-05-20 08:45:00,
2013-05-20 04:50:00,60.1,58.4,29.91,NW,315,0.0,0.0,94,0.00,,,0.00,WUHU216HW,2013-05-20 08:50:00,
2013-05-20 04:55:00,60.1,58.4,29.91,NW,315,0.0,0.0,94,0.00,,,0.00,WUHU216HW,2013-05-20 08:55:00,
2013-05-20 05:00:00,59.9,58.2,29.91,NW,315,0.0,0.0,94,0.00,,,0.00,WUHU216HW,2013-05-20 09:00:00,
2013-05-20 05:05:00,59.9,58.2,29.91,NW,315,0.0,0.0,94,0.00,,,0.00,WUHU216HW,2013-05-20 09:05:00,
2013-05-20 05:10:00,59.9,58.2,29.91,NW,315,0.0,0.0,94,0.00,,,0.00,WUHU216HW,2013-05-20 09:10:00,
2013-05-20 05:15:00,59.9,58.2,29.91,NW,315,0.0,0.0,94,0.00,,,0.00,WUHU216HW,2013-05-20 09:15:00,
2013-05-20 05:20:00,59.9,58.2,29.91,NW,315,0.0,0.0,94,0.00,,,0.00,WUHU216HW,2013-05-20 09:20:00,
2013-05-20 05:25:00,59.8,58.1,29.91,NW,315,0.0,0.0,94,0.00,,,0.00,WUHU216HW,2013-05-20 09:25:00,
2013-05-20 05:30:00,59.6,57.6,29.91,NW,315,0.0,0.0,93,0.00,,,0.00,WUHU216HW,2013-05-20 09:30:00,
2013-05-20 05:35:00,59.6,57.6,29.91,NW,315,0.0,0.4,93,0.00,,,0.00,WUHU216HW,2013-05-20 09:35:00,
2013-05-20 05:40:00,59.6,57.6,29.91,NW,315,0.0,0.4,93,0.00,,,0.00,WUHU216HW,2013-05-20 09:40:00,
2013-05-20 05:45:00,59.6,57.6,29.92,NW,315,0.7,1.1,93,0.00,,,0.00,WUHU216HW,2013-05-20 09:45:00,
2013-05-20 05:50:00,59.6,57.6,29.92,NNW,338,0.0,1.1,93,0.00,,,0.00,WUHU216HW,2013-05-20 09:50:00,
2013-05-20 05:55:00,59.4,57.4,29.92,NNW,338,0.0,1.1,93,0.00,,,0.00,WUHU216HW,2013-05-20 09:55:00,
2013-05-20 06:00:00,59.4,57.4,29.92,NNW,338,0.0,0.4,93,0.00,,,0.00,WUHU216HW,2013-05-20 10:00:00,
2013-05-20 06:05:00,59.4,57.4,29.92,NNW,338,0.0,0.0,93,0.00,,,0.00,WUHU216HW,2013-05-20 10:05:00,
2013-05-20 06:10:00,59.4,57.7,29.92,NNW,338,0.4,0.9,94,0.00,,,0.00,WUHU216HW,2013-05-20 10:10:00,
2013-05-20 06:15:00,59.2,57.3,29.92,NNW,338,0.0,0.9,93,0.00,,,0.00,WUHU216HW,2013-05-20 10:15:00,
2013-05-20 06:20:00,59.2,57.3,29.91,NNW,338,0.0,0.7,93,0.00,,,0.00,WUHU216HW,2013-05-20 10:20:00,
2013-05-20 06:25:00,59.2,57.5,29.92,NNW,338,0.0,0.0,94,0.00,,,0.00,WUHU216HW,2013-05-20 10:25:00,
2013-05-20 06:30:00,59.4,57.7,29.91,NNW,338,0.0,0.0,94,0.00,,,0.00,WUHU216HW,2013-05-20 10:30:00,
2013-05-20 06:35:00,59.4,57.7,29.92,NNW,338,0.0,0.0,94,0.00,,,0.00,WUHU216HW,2013-05-20 10:35:00,
2013-05-20 06:40:00,59.4,57.7,29.92,NNW,338,0.0,0.0,94,0.00,,,0.00,WUHU216HW,2013-05-20 10:40:00,
2013-05-20 06:45:00,59.4,57.7,29.92,NNW,338,0.0,0.0,94,0.00,,,0.00,WUHU216HW,2013-05-20 10:45:00,
2013-05-20 06:50:00,59.4,57.7,29.92,NNW,338,0.0,0.0,94,0.00,,,0.00,WUHU216HW,2013-05-20 10:50:00,
2013-05-20 06:55:00,59.4,57.7,29.92,NW,315,0.0,0.0,94,0.00,,,0.00,WUHU216HW,2013-05-20 10:55:00,
2013-05-20 07:00:00,59.4,57.7,29.92,WNW,293,0.0,0.2,94,0.00,,,0.00,WUHU216HW,2013-05-20 11:00:00,
2013-05-20 07:05:00,59.4,57.7,29.92,SSE,158,0.7,0.7,94,0.00,,,0.00,WUHU216HW,2013-05-20 11:05:00,
2013-05-20 07:10:00,59.6,57.9,29.93,SE,135,0.4,0.7,94,0.00,,,0.00,WUHU216HW,2013-05-20 11:10:00,
2013-05-20 07:15:00,59.6,57.9,29.93,South,180,0.0,1.1,94,0.00,,,0.00,WUHU216HW,2013-05-20 11:15:00,
2013-05-20 07:20:00,59.8,58.3,29.93,South,180,0.0,1.1,95,0.00,,,0.00,WUHU216HW,2013-05-20 11:20:00,
2013-05-20 07:25:00,59.8,58.3,29.93,SW,225,0.0,0.0,95,0.00,,,0.00,WUHU216HW,2013-05-20 11:25:00,
2013-05-20 07:30:00,59.9,58.5,29.93,SW,225,0.0,0.7,95,0.00,,,0.00,WUHU216HW,2013-05-20 11:30:00,
2013-05-20 07:35:00,60.1,58.7,29.93,SW,225,0.0,0.7,95,0.00,,,0.00,WUHU216HW,2013-05-20 11:35:00,
2013-05-20 07:40:00,60.1,58.7,29.93,SW,225,0.0,0.0,95,0.00,,,0.00,WUHU216HW,2013-05-20 11:40:00,
2013-05-20 07:45:00,60.3,58.9,29.93,SW,225,0.0,0.0,95,0.00,,,0.00,WUHU216HW,2013-05-20 11:45:00,
2013-05-20 07:50:00,60.3,58.9,29.93,SW,225,0.0,0.0,95,0.00,,,0.00,WUHU216HW,2013-05-20 11:50:00,
2013-05-20 07:55:00,60.3,58.9,29.93,SW,225,0.0,0.0,95,0.00,,,0.00,WUHU216HW,2013-05-20 11:55:00,
2013-05-20 08:00:00,60.7,59.2,29.93,NNW,338,1.3,1.3,95,0.00,,,0.00,WUHU216HW,2013-05-20 12:00:00,
2013-05-20 08:05:00,60.8,59.4,29.94,NW,315,0.2,2.2,95,0.00,,,0.00,WUHU216HW,2013-05-20 12:05:00,
2013-05-20 08:10:00,60.8,59.4,29.94,NNW,338,1.1,2.2,95,0.00,,,0.00,WUHU216HW,2013-05-20 12:10:00,
2013-05-20 08:15:00,60.8,59.4,29.94,NNW,338,0.0,1.8,95,0.00,,,0.00,WUHU216HW,2013-05-20 12:15:00,
2013-05-20 08:20:00,60.8,59.4,29.94,NNW,338,0.0,1.1,95,0.00,,,0.00,WUHU216HW,2013-05-20 12:20:00,
2013-05-20 08:25:00,60.8,59.4,29.94,NNW,338,0.7,0.9,95,0.00,,,0.00,WUHU216HW,2013-05-20 12:25:00,
2013-05-20 08:30:00,60.8,59.4,29.94,NNW,338,0.0,0.9,95,0.00,,,0.00,WUHU216HW,2013-05-20 12:30:00,
2013-05-20 08:35:00,61.2,59.8,29.94,NNW,338,0.0,0.7,95,0.00,,,0.00,WUHU216HW,2013-05-20 12:35:00,
2013-05-20 08:40:00,61.6,60.1,29.95,West,270,0.0,0.7,95,0.00,,,0.00,WUHU216HW,2013-05-20 12:40:00,
2013-05-20 08:45:00,61.9,60.5,29.95,West,270,0.0,0.7,95,0.00,,,0.00,WUHU216HW,2013-05-20 12:45:00,
2013-05-20 08:50:00,62.3,60.8,29.95,North,0,0.0,0.0,95,0.00,,,0.00,WUHU216HW,2013-05-20 12:50:00,
2013-05-20 08:55:00,62.5,61.0,29.95,North,0,0.0,0.0,95,0.00,,,0.00,WUHU216HW,2013-05-20 12:55:00,
2013-05-20 09:00:00,62.6,61.2,29.95,WSW,248,0.0,0.9,95,0.00,,,0.00,WUHU216HW,2013-05-20 13:00:00,
2013-05-20 09:05:00,63.0,61.6,29.95,WSW,248,0.0,0.9,95,0.00,,,0.00,WUHU216HW,2013-05-20 13:05:00,
2013-05-20 09:10:00,63.5,62.1,29.95,WSW,248,0.9,0.9,95,0.00,,,0.00,WUHU216HW,2013-05-20 13:10:00,
2013-05-20 09:15:00,63.9,62.2,29.95,SW,225,0.9,2.0,94,0.00,,,0.00,WUHU216HW,2013-05-20 13:15:00,
2013-05-20 09:20:00,64.1,62.4,29.95,SSW,203,0.0,2.0,94,0.00,,,0.00,WUHU216HW,2013-05-20 13:20:00,
2013-05-20 09:25:00,64.3,62.6,29.95,ESE,113,0.0,1.1,94,0.00,,,0.00,WUHU216HW,2013-05-20 13:25:00,
2013-05-20 09:30:00,64.4,62.7,29.95,SSW,203,0.4,0.9,94,0.00,,,0.00,WUHU216HW,2013-05-20 13:30:00,
2013-05-20 09:35:00,64.6,62.9,29.95,SE,135,0.0,0.9,94,0.00,,,0.00,WUHU216HW,2013-05-20 13:35:00,
2013-05-20 09:40:00,65.0,63.2,29.95,West,270,0.0,0.9,94,0.00,,,0.00,WUHU216HW,2013-05-20 13:40:00,
2013-05-20 09:45:00,65.3,63.3,29.95,SSW,203,1.1,1.8,93,0.00,,,0.00,WUHU216HW,2013-05-20 13:45:00,
2013-05-20 09:50:00,65.7,63.6,29.95,South,180,0.9,2.2,93,0.00,,,0.00,WUHU216HW,2013-05-20 13:50:00,
2013-05-20 09:55:00,66.1,63.9,29.94,South,180,0.0,2.2,93,0.00,,,0.00,WUHU216HW,2013-05-20 13:55:00,
2013-05-20 10:00:00,66.2,64.5,29.94,South,180,0.0,2.0,94,0.00,,,0.00,WUHU216HW,2013-05-20 14:00:00,
2013-05-20 10:05:00,66.4,64.6,29.95,SSE,158,0.2,0.4,94,0.00,,,0.00,WUHU216HW,2013-05-20 14:05:00,
2013-05-20 10:10:00,66.4,64.3,29.94,SW,225,0.0,0.7,93,0.00,,,0.00,WUHU216HW,2013-05-20 14:10:00,
2013-05-20 10:15:00,66.6,64.4,29.94,WSW,248,0.9,1.8,93,0.00,,,0.00,WUHU216HW,2013-05-20 14:15:00,
2013-05-20 10:20:00,66.8,64.0,29.94,ESE,113,0.0,1.8,91,0.00,,,0.00,WUHU216HW,2013-05-20 14:20:00,
2013-05-20 10:25:00,67.1,64.7,29.95,SW,225,1.1,2.0,92,0.00,,,0.00,WUHU216HW,2013-05-20 14:25:00,
2013-05-20 10:30:00,67.3,64.5,29.94,SSW,203,0.2,2.0,91,0.00,,,0.00,WUHU216HW,2013-05-20 14:30:00,
2013-05-20 10:35:00,67.5,64.7,29.94,SSW,203,1.1,1.6,91,0.00,,,0.00,WUHU216HW,2013-05-20 14:35:00,
2013-05-20 10:40:00,67.7,64.6,29.94,WSW,248,0.7,1.6,90,0.00,,,0.00,WUHU216HW,2013-05-20 14:40:00,
2013-05-20 10:45:00,68.2,65.2,29.94,SSW,203,0.9,1.3,90,0.00,,,0.00,WUHU216HW,2013-05-20 14:45:00,
2013-05-20 10:50:00,68.8,65.3,29.94,WSW,248,2.5,2.9,89,0.00,,,0.00,WUHU216HW,2013-05-20 14:50:00,
2013-05-20 10:55:00,69.5,66.1,29.94,SE,135,0.0,2.9,89,0.00,,,0.00,WUHU216HW,2013-05-20 14:55:00,
2013-05-20 11:00:00,69.8,66.1,29.94,West,270,0.4,2.7,88,0.00,,,0.00,WUHU216HW,2013-05-20 15:00:00,
2013-05-20 11:05:00,70.0,65.6,29.94,SE,135,0.9,2.5,86,0.00,,,0.00,WUHU216HW,2013-05-20 15:05:00,
2013-05-20 11:10:00,69.8,65.4,29.94,SW,225,0.0,1.3,86,0.00,,,0.00,WUHU216HW,2013-05-20 15:10:00,
2013-05-20 11:15:00,70.2,65.8,29.94,SSW,203,0.9,2.0,86,0.00,,,0.00,WUHU216HW,2013-05-20 15:15:00,
2013-05-20 11:20:00,70.2,65.4,29.94,South,180,1.3,2.0,85,0.00,,,0.00,WUHU216HW,2013-05-20 15:20:00,
2013-05-20 11:25:00,70.2,65.1,29.94,East,90,1.1,1.8,84,0.00,,,0.00,WUHU216HW,2013-05-20 15:25:00,
2013-05-20 11:30:00,70.2,65.1,29.94,SSW,203,0.7,1.8,84,0.00,,,0.00,WUHU216HW,2013-05-20 15:30:00,
2013-05-20 11:35:00,70.7,65.3,29.94,SSE,158,1.1,1.6,83,0.00,,,0.00,WUHU216HW,2013-05-20 15:35:00,
2013-05-20 11:40:00,71.1,65.6,29.94,SE,135,0.4,2.5,83,0.00,,,0.00,WUHU216HW,2013-05-20 15:40:00,
2013-05-20 11:45:00,71.6,65.9,29.94,SSW,203,1.1,3.6,82,0.00,,,0.00,WUHU216HW,2013-05-20 15:45:00,
2013-05-20 11:50:00,72.2,66.4,29.93,SE,135,0.0,3.6,82,0.00,,,0.00,WUHU216HW,2013-05-20 15:50:00,
2013-05-20 11:55:00,72.5,66.8,29.94,SSW,203,1.1,2.5,82,0.00,,,0.00,WUHU216HW,2013-05-20 15:55:00,
2013-05-20 12:00:00,73.1,67.3,29.94,WSW,248,1.3,2.5,82,0.00,,,0.00,WUHU216HW,2013-05-20 16:00:00,
2013-05-20 12:05:00,73.1,65.4,29.94,NW,315,1.1,2.2,77,0.00,,,0.00,WUHU216HW,2013-05-20 16:05:00,
2013-05-20 12:10:00,72.7,64.4,29.94,WNW,293,1.1,2.2,75,0.00,,,0.00,WUHU216HW,2013-05-20 16:10:00,
2013-05-20 12:15:00,72.9,66.1,29.93,NE,45,1.1,2.2,79,0.00,,,0.00,WUHU216HW,2013-05-20 16:15:00,
2013-05-20 12:20:00,72.9,66.1,29.94,SW,225,1.3,2.2,79,0.00,,,0.00,WUHU216HW,2013-05-20 16:20:00,
2013-05-20 12:25:00,73.3,66.4,29.93,West,270,2.2,3.1,79,0.00,,,0.00,WUHU216HW,2013-05-20 16:25:00,
2013-05-20 12:30:00,74.0,66.7,29.93,SSW,203,1.8,3.1,78,0.00,,,0.00,WUHU216HW,2013-05-20 16:30:00,
2013-05-20 12:35:00,74.3,66.3,29.93,South,180,2.0,2.9,76,0.00,,,0.00,WUHU216HW,2013-05-20 16:35:00,
2013-05-20 12:40:00,74.7,67.4,29.93,West,270,1.1,2.9,78,0.00,,,0.00,WUHU216HW,2013-05-20 16:40:00,
2013-05-20 12:45:00,74.9,66.9,29.93,SSW,203,1.6,2.7,76,0.00,,,0.00,WUHU216HW,2013-05-20 16:45:00,
2013-05-20 12:50:00,74.5,66.1,29.92,SSW,203,0.7,2.5,75,0.00,,,0.00,WUHU216HW,2013-05-20 16:50:00,
2013-05-20 12:55:00,74.3,66.7,29.92,SW,225,1.3,2.5,77,0.00,,,0.00,WUHU216HW,2013-05-20 16:55:00,
2013-05-20 13:00:00,74.7,67.1,29.92,WSW,248,1.1,2.5,77,0.00,,,0.00,WUHU216HW,2013-05-20 17:00:00,
2013-05-20 13:05:00,75.2,67.6,29.92,SW,225,2.5,2.5,77,0.00,,,0.00,WUHU216HW,2013-05-20 17:05:00,
2013-05-20 13:10:00,75.4,67.0,29.92,West,270,1.3,2.9,75,0.00,,,0.00,WUHU216HW,2013-05-20 17:10:00,
2013-05-20 13:15:00,75.6,66.7,29.92,SSW,203,1.6,2.9,74,0.00,,,0.00,WUHU216HW,2013-05-20 17:15:00,
2013-05-20 13:20:00,76.0,67.1,29.92,SW,225,1.8,2.5,74,0.00,,,0.00,WUHU216HW,2013-05-20 17:20:00,
2013-05-20 13:25:00,76.1,67.2,29.92,WSW,248,1.1,2.5,74,0.00,,,0.00,WUHU216HW,2013-05-20 17:25:00,
2013-05-20 13:30:00,76.0,65.5,29.92,NNW,338,2.9,4.7,70,0.00,,,0.00,WUHU216HW,2013-05-20 17:30:00,
2013-05-20 13:35:00,75.6,66.0,29.92,NNW,338,1.8,4.7,72,0.00,,,0.00,WUHU216HW,2013-05-20 17:35:00,
2013-05-20 13:40:00,75.4,65.8,29.91,NNW,338,2.9,4.5,72,0.00,,,0.00,WUHU216HW,2013-05-20 17:40:00,
2013-05-20 13:45:00,75.4,66.6,29.91,NNW,338,0.9,4.5,74,0.00,,,0.00,WUHU216HW,2013-05-20 17:45:00,
2013-05-20 13:50:00,75.8,65.7,29.91,North,0,2.0,3.4,71,0.00,,,0.00,WUHU216HW,2013-05-20 17:50:00,
2013-05-20 13:55:00,75.6,66.0,29.91,NW,315,3.1,3.4,72,0.00,,,0.00,WUHU216HW,2013-05-20 17:55:00,
2013-05-20 14:00:00,76.0,66.3,29.91,NW,315,2.5,3.1,72,0.00,,,0.00,WUHU216HW,2013-05-20 18:00:00,
2013-05-20 14:05:00,76.7,67.0,29.91,SW,225,2.5,2.5,72,0.00,,,0.00,WUHU216HW,2013-05-20 18:05:00,
2013-05-20 14:10:00,77.0,67.3,29.91,WSW,248,1.1,3.1,72,0.00,,,0.00,WUHU216HW,2013-05-20 18:10:00,
2013-05-20 14:15:00,76.7,66.6,29.91,WSW,248,1.3,3.1,71,0.00,,,0.00,WUHU216HW,2013-05-20 18:15:00,
2013-05-20 14:20:00,76.7,66.2,29.91,WSW,248,1.8,2.5,70,0.00,,,0.00,WUHU216HW,2013-05-20 18:20:00,
2013-05-20 14:25:00,77.4,65.2,29.90,NW,315,1.8,2.0,66,0.00,,,0.00,WUHU216HW,2013-05-20 18:25:00,
2013-05-20 14:30:00,78.8,68.6,29.91,SW,225,1.8,2.7,71,0.00,,,0.00,WUHU216HW,2013-05-20 18:30:00,
2013-05-20 14:35:00,79.9,68.9,29.91,SW,225,1.6,2.9,69,0.00,,,0.00,WUHU216HW,2013-05-20 18:35:00,
2013-05-20 14:40:00,79.7,67.8,29.90,SSW,203,1.8,2.9,67,0.00,,,0.00,WUHU216HW,2013-05-20 18:40:00,
2013-05-20 14:45:00,79.6,67.1,29.90,NE,45,1.8,3.4,66,0.00,,,0.00,WUHU216HW,2013-05-20 18:45:00,
2013-05-20 14:50:00,78.7,66.3,29.90,NE,45,1.1,3.4,66,0.00,,,0.00,WUHU216HW,2013-05-20 18:50:00,
2013-05-20 14:55:00,77.6,66.3,29.90,WSW,248,1.1,2.9,68,0.00,,,0.00,WUHU216HW,2013-05-20 18:55:00,
2013-05-20 15:00:00,77.2,67.1,29.90,SSW,203,1.1,2.7,71,0.00,,,0.00,WUHU216HW,2013-05-20 19:00:00,
2013-05-20 15:05:00,78.5,67.9,29.90,South,180,3.8,3.8,70,0.00,,,0.00,WUHU216HW,2013-05-20 19:05:00,
2013-05-20 15:10:00,79.2,67.7,29.90,SSW,203,1.8,3.8,68,0.00,,,0.00,WUHU216HW,2013-05-20 19:10:00,
2013-05-20 15:15:00,78.1,65.8,29.90,SW,225,1.6,3.8,66,0.00,,,0.00,WUHU216HW,2013-05-20 19:15:00,
2013-05-20 15:20:00,77.6,66.3,29.90,SSE,158,0.4,2.7,68,0.00,,,0.00,WUHU216HW,2013-05-20 19:20:00,
2013-05-20 15:25:00,76.7,66.2,29.90,SSW,203,1.6,2.7,70,0.00,,,0.00,WUHU216HW,2013-05-20 19:25:00,
2013-05-20 15:30:00,76.3,66.2,29.90,South,180,1.1,2.7,71,0.00,,,0.00,WUHU216HW,2013-05-20 19:30:00,
2013-05-20 15:35:00,76.0,65.9,29.90,WNW,293,0.4,2.5,71,0.00,,,0.00,WUHU216HW,2013-05-20 19:35:00,
2013-05-20 15:40:00,75.6,65.5,29.90,SW,225,0.4,2.0,71,0.00,,,0.00,WUHU216HW,2013-05-20 19:40:00,
2013-05-20 15:45:00,75.2,65.6,29.90,North,0,0.4,1.8,72,0.00,,,0.00,WUHU216HW,2013-05-20 19:45:00,
2013-05-20 15:50:00,75.1,65.4,29.90,WSW,248,0.0,1.8,72,0.00,,,0.00,WUHU216HW,2013-05-20 19:50:00,
2013-05-20 15:55:00,75.1,65.8,29.90,NW,315,1.8,1.8,73,0.00,,,0.00,WUHU216HW,2013-05-20 19:55:00,
2013-05-20 16:00:00,74.7,64.4,29.90,NNW,338,3.6,3.6,70,0.00,,,0.00,WUHU216HW,2013-05-20 20:00:00,
2013-05-20 16:05:00,74.3,64.0,29.90,WSW,248,1.1,3.6,70,0.00,,,0.00,WUHU216HW,2013-05-20 20:05:00,
2013-05-20 16:10:00,74.2,64.2,29.89,NNW,338,0.4,3.6,71,0.00,,,0.00,WUHU216HW,2013-05-20 20:10:00,
2013-05-20 16:15:00,74.2,64.6,29.89,NW,315,1.3,1.6,72,0.00,,,0.00,WUHU216HW,2013-05-20 20:15:00,
2013-05-20 16:20:00,74.3,64.8,29.89,WSW,248,2.0,2.7,72,0.00,,,0.00,WUHU216HW,2013-05-20 20:20:00,
2013-05-20 16:25:00,74.5,64.2,29.89,North,0,1.3,2.7,70,0.00,,,0.00,WUHU216HW,2013-05-20 20:25:00,
2013-05-20 16:30:00,74.5,63.7,29.89,NNW,338,3.4,4.5,69,0.00,,,0.00,WUHU216HW,2013-05-20 20:30:00,
2013-05-20 16:35:00,74.5,64.5,29.89,WSW,248,1.1,4.5,71,0.00,,,0.00,WUHU216HW,2013-05-20 20:35:00,
2013-05-20 16:40:00,74.7,65.5,29.89,South,180,1.8,3.8,73,0.00,,,0.00,WUHU216HW,2013-05-20 20:40:00,
2013-05-20 16:45:00,74.9,65.6,29.89,SW,225,1.1,2.5,73,0.00,,,0.00,WUHU216HW,2013-05-20 20:45:00,
2013-05-20 16:50:00,75.1,65.8,29.89,South,180,0.2,2.5,73,0.00,,,0.00,WUHU216HW,2013-05-20 20:50:00,
2013-05-20 16:55:00,75.1,65.8,29.89,SW,225,0.9,2.5,73,0.00,,,0.00,WUHU216HW,2013-05-20 20:55:00,
2013-05-20 17:00:00,75.1,65.8,29.89,WSW,248,1.3,1.6,73,0.00,,,0.00,WUHU216HW,2013-05-20 21:00:00,
2013-05-20 17:05:00,75.2,66.0,29.89,SW,225,1.1,1.8,73,0.00,,,0.00,WUHU216HW,2013-05-20 21:05:00,
2013-05-20 17:10:00,75.2,66.0,29.89,WSW,248,1.3,1.8,73,0.00,,,0.00,WUHU216HW,2013-05-20 21:10:00,
2013-05-20 17:15:00,75.6,66.3,29.88,SE,135,0.9,1.8,73,0.00,,,0.00,WUHU216HW,2013-05-20 21:15:00,
2013-05-20 17:20:00,76.0,66.7,29.88,SW,225,2.7,2.7,73,0.00,,,0.00,WUHU216HW,2013-05-20 21:20:00,
2013-05-20 17:25:00,76.5,66.9,29.88,SSW,203,0.9,2.7,72,0.00,,,0.00,WUHU216HW,2013-05-20 21:25:00,
2013-05-20 17:30:00,77.0,67.0,29.87,SW,225,1.3,2.7,71,0.00,,,0.00,WUHU216HW,2013-05-20 21:30:00,
2013-05-20 17:35:00,77.0,67.0,29.87,SW,225,1.3,1.8,71,0.00,,,0.00,WUHU216HW,2013-05-20 21:35:00,
2013-05-20 17:40:00,76.9,66.8,29.87,WSW,248,1.3,2.5,71,0.00,,,0.00,WUHU216HW,2013-05-20 21:40:00,
2013-05-20 17:45:00,76.5,66.4,29.87,SW,225,1.1,2.5,71,0.00,,,0.00,WUHU216HW,2013-05-20 21:45:00,
2013-05-20 17:50:00,76.3,66.2,29.87,SW,225,1.1,2.5,71,0.00,,,0.00,WUHU216HW,2013-05-20 21:50:00,
2013-05-20 17:55:00,76.3,66.7,29.87,SW,225,1.3,1.6,72,0.00,,,0.00,WUHU216HW,2013-05-20 21:55:00,
2013-05-20 18:00:00,76.3,66.7,29.88,WSW,248,0.0,1.8,72,0.00,,,0.00,WUHU216HW,2013-05-20 22:00:00,
2013-05-20 18:05:00,75.8,65.7,29.88,SSE,158,0.2,1.8,71,0.00,,,0.00,WUHU216HW,2013-05-20 22:05:00,
2013-05-20 18:10:00,75.4,65.8,29.88,SW,225,0.0,1.6,72,0.00,,,0.00,WUHU216HW,2013-05-20 22:10:00,
2013-05-20 18:15:00,75.2,66.0,29.89,SW,225,0.0,1.6,73,0.00,,,0.00,WUHU216HW,2013-05-20 22:15:00,
2013-05-20 18:20:00,75.1,65.8,29.89,SW,225,0.2,1.1,73,0.00,,,0.00,WUHU216HW,2013-05-20 22:20:00,
2013-05-20 18:25:00,75.1,65.8,29.89,SW,225,0.9,1.6,73,0.00,,,0.00,WUHU216HW,2013-05-20 22:25:00,
2013-05-20 18:30:00,74.9,65.6,29.89,SW,225,0.4,1.6,73,0.00,,,0.00,WUHU216HW,2013-05-20 22:30:00,
2013-05-20 18:35:00,74.9,65.6,29.89,SSW,203,0.9,1.8,73,0.00,,,0.00,WUHU216HW,2013-05-20 22:35:00,
2013-05-20 18:40:00,75.1,66.3,29.89,WSW,248,1.8,2.0,74,0.00,,,0.00,WUHU216HW,2013-05-20 22:40:00,
2013-05-20 18:45:00,75.2,66.4,29.89,SSW,203,1.1,2.5,74,0.00,,,0.00,WUHU216HW,2013-05-20 22:45:00,
2013-05-20 18:50:00,75.2,66.0,29.89,SSW,203,1.8,2.5,73,0.00,,,0.00,WUHU216HW,2013-05-20 22:50:00,
2013-05-20 18:55:00,75.2,66.0,29.89,SSW,203,0.9,2.0,73,0.00,,,0.00,WUHU216HW,2013-05-20 22:55:00,
2013-05-20 19:00:00,74.7,65.5,29.89,SW,225,1.1,2.0,73,0.00,,,0.00,WUHU216HW,2013-05-20 23:00:00,
2013-05-20 19:05:00,74.3,65.2,29.89,SW,225,1.3,1.6,73,0.00,,,0.00,WUHU216HW,2013-05-20 23:05:00,
2013-05-20 19:10:00,74.0,64.8,29.90,SSE,158,1.1,1.8,73,0.00,,,0.00,WUHU216HW,2013-05-20 23:10:00,
2013-05-20 19:15:00,73.4,65.1,29.89,SE,135,0.4,1.8,75,0.00,,,0.00,WUHU216HW,2013-05-20 23:15:00,
2013-05-20 19:20:00,72.9,64.5,29.89,SE,135,0.0,1.3,75,0.00,,,0.00,WUHU216HW,2013-05-20 23:20:00,
2013-05-20 19:25:00,72.7,64.4,29.89,SE,135,0.0,1.1,75,0.00,,,0.00,WUHU216HW,2013-05-20 23:25:00,
2013-05-20 19:30:00,72.4,64.4,29.90,SE,135,0.0,0.7,76,0.00,,,0.00,WUHU216HW,2013-05-20 23:30:00,
2013-05-20 19:35:00,72.2,63.8,29.90,WSW,248,0.7,0.7,75,0.00,,,0.00,WUHU216HW,2013-05-20 23:35:00,
2013-05-20 19:40:00,72.0,64.0,29.89,South,180,0.0,0.7,76,0.00,,,0.00,WUHU216HW,2013-05-20 23:40:00,
2013-05-20 19:45:00,71.6,63.6,29.89,South,180,0.0,0.7,76,0.00,,,0.00,WUHU216HW,2013-05-20 23:45:00,
2013-05-20 19:50:00,71.3,63.3,29.89,South,180,0.0,0.0,76,0.00,,,0.00,WUHU216HW,2013-05-20 23:50:00,
2013-05-20 19:55:00,71.1,63.5,29.89,South,180,0.0,0.0,77,0.00,,,0.00,WUHU216HW,2013-05-20 23:55:00,
2013-05-20 20:00:00,70.9,63.3,29.89,South,180,0.0,0.0,77,0.00,,,0.00,WUHU216HW,2013-05-21 00:00:00,
2013-05-20 20:05:00,70.7,63.1,29.89,South,180,0.0,0.0,77,0.00,,,0.00,WUHU216HW,2013-05-21 00:05:00,
2013-05-20 20:10:00,70.4,62.7,29.89,South,180,0.0,0.0,77,0.00,,,0.00,WUHU216HW,2013-05-21 00:10:00,
2013-05-20 20:15:00,70.2,63.0,29.89,South,180,0.0,0.0,78,0.00,,,0.00,WUHU216HW,2013-05-21 00:15:00,
2013-05-20 20:20:00,69.8,62.7,29.89,South,180,0.0,0.0,78,0.00,,,0.00,WUHU216HW,2013-05-21 00:20:00,
2013-05-20 20:25:00,69.7,62.5,29.90,South,180,0.0,0.0,78,0.00,,,0.00,WUHU216HW,2013-05-21 00:25:00,
2013-05-20 20:30:00,69.5,62.6,29.89,South,180,0.0,0.0,79,0.00,,,0.00,WUHU216HW,2013-05-21 00:30:00,
2013-05-20 20:35:00,69.1,62.4,29.90,South,180,0.0,0.0,79,0.00,,,0.00,WUHU216HW,2013-05-21 00:35:00,
2013-05-20 20:40:00,68.8,62.4,29.90,South,180,0.0,0.0,80,0.00,,,0.00,WUHU216HW,2013-05-21 00:40:00,
2013-05-20 20:45:00,68.4,62.4,29.89,South,180,0.0,0.0,81,0.00,,,0.00,WUHU216HW,2013-05-21 00:45:00,
2013-05-20 20:50:00,68.2,62.2,29.89,South,180,0.0,0.0,81,0.00,,,0.00,WUHU216HW,2013-05-21 00:50:00,
2013-05-20 20:55:00,68.0,62.4,29.89,South,180,0.0,0.0,82,0.00,,,0.00,WUHU216HW,2013-05-21 00:55:00,
2013-05-20 21:00:00,67.7,62.0,29.89,South,180,0.0,0.0,82,0.00,,,0.00,WUHU216HW,2013-05-21 01:00:00,
2013-05-20 21:05:00,67.5,61.8,29.89,South,180,0.0,0.0,82,0.00,,,0.00,WUHU216HW,2013-05-21 01:05:00,
2013-05-20 21:10:00,67.3,61.7,29.89,South,180,0.0,0.0,82,0.00,,,0.00,WUHU216HW,2013-05-21 01:10:00,
2013-05-20 21:15:00,67.1,61.8,29.89,South,180,0.0,0.0,83,0.00,,,0.00,WUHU216HW,2013-05-21 01:15:00,
2013-05-20 21:20:00,67.0,61.7,29.90,South,180,0.0,0.0,83,0.00,,,0.00,WUHU216HW,2013-05-21 01:20:00,
2013-05-20 21:25:00,66.8,61.7,29.90,SSE,158,0.0,0.0,84,0.00,,,0.00,WUHU216HW,2013-05-21 01:25:00,
2013-05-20 21:30:00,66.4,61.4,29.90,SSE,158,0.0,0.0,84,0.00,,,0.00,WUHU216HW,2013-05-21 01:30:00,
2013-05-20 21:35:00,66.2,61.2,29.89,SSE,158,0.0,0.0,84,0.00,,,0.00,WUHU216HW,2013-05-21 01:35:00,
2013-05-20 21:40:00,66.1,61.0,29.89,SSE,158,0.0,0.0,84,0.00,,,0.00,WUHU216HW,2013-05-21 01:40:00,
2013-05-20 21:45:00,65.9,61.2,29.89,SSE,158,0.0,0.0,85,0.00,,,0.00,WUHU216HW,2013-05-21 01:45:00,
2013-05-20 21:50:00,65.7,61.0,29.89,SSE,158,0.0,0.0,85,0.00,,,0.00,WUHU216HW,2013-05-21 01:50:00,
2013-05-20 21:55:00,65.7,61.0,29.89,WSW,248,1.1,1.1,85,0.00,,,0.00,WUHU216HW,2013-05-21 01:55:00,
2013-05-20 22:00:00,65.3,60.8,29.89,West,270,0.4,1.1,85,0.00,,,0.00,WUHU216HW,2013-05-21 02:00:00,
2013-05-20 22:05:00,65.0,60.4,29.89,West,270,1.1,1.8,85,0.00,,,0.00,WUHU216HW,2013-05-21 02:05:00,
2013-05-20 22:10:00,64.8,60.2,29.89,SW,225,0.0,1.8,85,0.00,,,0.00,WUHU216HW,2013-05-21 02:10:00,
2013-05-20 22:15:00,64.8,60.2,29.89,SW,225,0.4,1.8,85,0.00,,,0.00,WUHU216HW,2013-05-21 02:15:00,
2013-05-20 22:20:00,64.8,60.2,29.89,SW,225,0.7,1.1,85,0.00,,,0.00,WUHU216HW,2013-05-21 02:20:00,
2013-05-20 22:25:00,64.8,60.2,29.89,WSW,248,0.7,1.3,85,0.00,,,0.00,WUHU216HW,2013-05-21 02:25:00,
2013-05-20 22:30:00,64.8,60.2,29.89,SW,225,0.9,1.3,85,0.00,,,0.00,WUHU216HW,2013-05-21 02:30:00,
2013-05-20 22:35:00,64.6,60.4,29.89,SW,225,0.7,1.1,86,0.00,,,0.00,WUHU216HW,2013-05-21 02:35:00,
2013-05-20 22:40:00,64.6,60.4,29.88,WSW,248,0.2,1.1,86,0.00,,,0.00,WUHU216HW,2013-05-21 02:40:00,
2013-05-20 22:45:00,64.4,60.2,29.88,WNW,293,0.7,1.1,86,0.00,,,0.00,WUHU216HW,2013-05-21 02:45:00,
2013-05-20 22:50:00,64.1,59.9,29.88,NW,315,0.0,1.1,86,0.00,,,0.00,WUHU216HW,2013-05-21 02:50:00,
2013-05-20 22:55:00,63.9,60.3,29.88,NE,45,0.0,0.9,88,0.00,,,0.00,WUHU216HW,2013-05-21 02:55:00,
2013-05-20 23:00:00,63.7,60.8,29.88,NE,45,0.4,0.9,90,0.00,,,0.00,WUHU216HW,2013-05-21 03:00:00,
2013-05-20 23:05:00,63.7,60.5,29.88,NE,45,0.7,1.1,89,0.00,,,0.00,WUHU216HW,2013-05-21 03:05:00,
2013-05-20 23:10:00,63.7,60.5,29.88,NE,45,0.0,1.1,89,0.00,,,0.00,WUHU216HW,2013-05-21 03:10:00,
2013-05-20 23:15:00,63.5,59.9,29.89,NE,45,0.9,1.1,88,0.00,,,0.00,WUHU216HW,2013-05-21 03:15:00,
2013-05-20 23:20:00,63.5,60.3,29.89,NE,45,0.9,1.1,89,0.00,,,0.00,WUHU216HW,2013-05-21 03:20:00,
2013-05-20 23:25:00,63.4,60.1,29.89,NE,45,0.0,1.1,89,0.00,,,0.00,WUHU216HW,2013-05-21 03:25:00,
2013-05-20 23:30:00,63.5,60.3,29.89,NE,45,0.0,0.9,89,0.00,,,0.00,WUHU216HW,2013-05-21 03:30:00,
2013-05-20 23:35:00,63.4,60.1,29.89,NE,45,0.0,0.7,89,0.00,,,0.00,WUHU216HW,2013-05-21 03:35:00,
2013-05-20 23:40:00,63.2,59.9,29.89,NE,45,0.0,0.7,89,0.00,,,0.00,WUHU216HW,2013-05-21 03:40:00,
2013-05-20 23:45:00,63.2,59.9,29.89,NE,45,0.0,1.1,89,0.00,,,0.00,WUHU216HW,2013-05-21 03:45:00,
2013-05-20 23:50:00,63.0,59.4,29.89,NE,45,0.0,1.1,88,0.00,,,0.00,WUHU216HW,2013-05-21 03:50:00,
2013-05-20 23:55:00,62.8,59.6,29.89,NE,45,1.1,1.1,89,0.00,,,0.00,WUHU216HW,2013-05-21 03:55:00,